Time;durP1;ratioP1;P1;durP2;ratioP2;P2;SDS_P1;SDS_P2;PMS_P1;PMS_P2;Temp;Humidity;BMP_temperature;BMP_pressure;BME280_temperature;BME280_humidity;BME280_pressure;Samples;Min_cycle;Max_cycle;Signal;HPM_P1;HPM_P2
2022/03/03 00:01:21;;;;;;;60.75;38.35;;;3.00;99.90;;;;;;5051046;28;20041;-84
2022/03/03 00:03:46;;;;;;;62.50;39.40;;;3.00;99.90;;;;;;5051297;28;20478;-84
2022/03/03 00:06:12;;;;;;;61.42;40.55;;;3.00;99.90;;;;;;5051190;28;20045;-84
2022/03/03 00:08:39;;;;;;;61.25;38.45;;;2.90;99.90;;;;;;5050396;28;20045;-84
2022/03/03 00:11:04;;;;;;;62.72;38.83;;;3.00;99.90;;;;;;5051135;28;20103;-84
2022/03/03 00:13:30;;;;;;;61.65;39.72;;;3.00;99.90;;;;;;5033951;28;20044;-84
2022/03/03 00:15:56;;;;;;;61.22;38.88;;;3.00;99.90;;;;;;5034695;28;20124;-84
2022/03/03 00:18:21;;;;;;;59.90;38.38;;;3.00;99.90;;;;;;5050949;28;20063;-84
2022/03/03 00:20:47;;;;;;;63.72;40.70;;;3.00;99.90;;;;;;5052001;28;20444;-84
2022/03/03 00:23:13;;;;;;;61.30;38.75;;;2.90;99.90;;;;;;5052643;28;20103;-84
2022/03/03 00:25:38;;;;;;;60.80;37.78;;;2.90;99.90;;;;;;5053919;28;20049;-84
2022/03/03 00:28:04;;;;;;;59.55;38.58;;;2.90;99.90;;;;;;5021764;28;20045;-84
2022/03/03 00:30:30;;;;;;;58.75;37.25;;;2.80;99.90;;;;;;5054066;28;20088;-84
2022/03/03 00:32:56;;;;;;;56.17;36.10;;;2.80;99.90;;;;;;5055918;28;20083;-84
2022/03/03 00:35:21;;;;;;;56.55;37.92;;;2.70;99.90;;;;;;5054345;28;20469;-84
2022/03/03 00:37:47;;;;;;;59.03;37.15;;;2.70;99.90;;;;;;5053973;28;20064;-83
2022/03/03 00:40:13;;;;;;;58.45;36.55;;;2.60;99.90;;;;;;5038188;28;20053;-83
2022/03/03 00:42:39;;;;;;;58.50;38.50;;;2.70;99.90;;;;;;5055093;28;20041;-84
2022/03/03 00:45:05;;;;;;;58.22;37.80;;;2.60;99.90;;;;;;5054121;28;20077;-84
2022/03/03 00:47:31;;;;;;;54.95;35.53;;;2.50;99.90;;;;;;5037739;28;20144;-84
2022/03/03 00:49:56;;;;;;;54.28;35.40;;;2.40;99.90;;;;;;5037646;28;20178;-84
2022/03/03 00:52:22;;;;;;;59.25;38.50;;;2.40;99.90;;;;;;5054182;28;20037;-84
2022/03/03 00:54:47;;;;;;;60.03;38.97;;;2.40;99.90;;;;;;5055173;28;20139;-84
2022/03/03 00:57:13;;;;;;;59.30;36.67;;;2.30;99.90;;;;;;5068582;28;20060;-84
2022/03/03 00:59:39;;;;;;;57.85;37.65;;;2.30;99.90;;;;;;5062376;28;20045;-85
2022/03/03 01:02:04;;;;;;;55.97;37.38;;;2.20;99.90;;;;;;5077853;28;20025;-84
2022/03/03 01:04:30;;;;;;;56.42;35.25;;;2.30;99.90;;;;;;5078907;28;20029;-86
2022/03/03 01:06:56;;;;;;;54.08;34.83;;;2.10;99.90;;;;;;5079145;28;20036;-84
2022/03/03 01:09:21;;;;;;;55.22;34.35;;;2.00;99.90;;;;;;5079108;28;20033;-84
2022/03/03 01:11:47;;;;;;;57.60;35.67;;;2.00;99.90;;;;;;5075995;28;20053;-83
2022/03/03 01:14:12;;;;;;;56.58;36.75;;;1.90;99.90;;;;;;5037971;28;20131;-83
2022/03/03 01:16:38;;;;;;;57.35;35.95;;;1.90;99.90;;;;;;5054042;28;20092;-83
2022/03/03 01:19:04;;;;;;;54.00;35.75;;;1.80;99.90;;;;;;5020681;28;20096;-84
2022/03/03 01:21:31;;;;;;;56.42;37.33;;;1.80;99.90;;;;;;5055197;28;20537;-84
2022/03/03 01:23:57;;;;;;;53.35;35.38;;;1.70;99.90;;;;;;5054153;28;20183;-84
2022/03/03 01:26:23;;;;;;;56.58;36.63;;;1.70;99.90;;;;;;5053975;28;20052;-84
2022/03/03 01:28:49;;;;;;;54.20;34.15;;;1.70;99.90;;;;;;5054783;28;20041;-84
2022/03/03 01:31:14;;;;;;;51.60;33.97;;;1.60;99.90;;;;;;5020737;28;20044;-84
2022/03/03 01:33:40;;;;;;;56.42;35.40;;;1.60;99.90;;;;;;5036370;28;20132;-84
2022/03/03 01:36:06;;;;;;;54.30;33.28;;;1.50;99.90;;;;;;5052996;28;20048;-84
2022/03/03 01:38:31;;;;;;;55.25;34.38;;;1.50;99.90;;;;;;5036355;28;20045;-84
2022/03/03 01:40:57;;;;;;;54.58;36.05;;;1.40;99.90;;;;;;5036672;28;20095;-84
2022/03/03 01:43:22;;;;;;;54.95;35.30;;;1.40;99.90;;;;;;5053196;28;20053;-84
2022/03/03 01:45:48;;;;;;;53.58;34.47;;;1.30;99.90;;;;;;5036446;28;20433;-84
2022/03/03 01:48:14;;;;;;;57.67;34.28;;;1.30;99.90;;;;;;5053139;28;20041;-84
2022/03/03 01:50:39;;;;;;;56.00;35.15;;;1.30;99.90;;;;;;5052846;28;20036;-84
2022/03/03 01:53:05;;;;;;;55.15;34.42;;;1.20;99.90;;;;;;5053185;28;20436;-84
2022/03/03 01:55:31;;;;;;;55.92;34.63;;;1.20;99.90;;;;;;5054259;28;20041;-84
2022/03/03 01:57:58;;;;;;;55.17;33.10;;;1.30;99.90;;;;;;5052720;28;20049;-83
2022/03/03 02:00:23;;;;;;;53.28;33.08;;;1.20;99.90;;;;;;5052912;28;20049;-84
2022/03/03 02:02:49;;;;;;;51.80;32.80;;;1.20;99.90;;;;;;5052501;28;20494;-84
2022/03/03 02:05:15;;;;;;;53.75;34.33;;;1.20;99.90;;;;;;5052846;28;20374;-84
2022/03/03 02:07:40;;;;;;;55.50;34.95;;;1.10;99.90;;;;;;5053534;28;20090;-84
2022/03/03 02:10:06;;;;;;;57.22;35.85;;;1.20;99.90;;;;;;5052846;28;20052;-84
2022/03/03 02:12:32;;;;;;;57.95;37.22;;;1.20;99.90;;;;;;5053610;28;20496;-84
2022/03/03 02:14:58;;;;;;;60.50;36.38;;;1.20;99.90;;;;;;5053539;28;20053;-84
2022/03/03 02:17:23;;;;;;;59.00;36.38;;;1.20;99.90;;;;;;5052437;28;20037;-84
2022/03/03 02:19:49;;;;;;;58.95;37.50;;;1.20;99.90;;;;;;5051535;28;20096;-84
2022/03/03 02:22:14;;;;;;;58.88;36.13;;;1.20;99.90;;;;;;5053235;28;20048;-84
2022/03/03 02:24:40;;;;;;;61.83;38.10;;;1.30;99.90;;;;;;5053258;28;20090;-85
2022/03/03 02:27:07;;;;;;;56.70;36.22;;;1.20;99.90;;;;;;5052403;28;20124;-84
2022/03/03 02:29:32;;;;;;;57.03;35.97;;;1.20;99.90;;;;;;5003534;28;20049;-84
2022/03/03 02:32:00;;;;;;;59.88;36.42;;;1.20;99.90;;;;;;5058262;28;20059;-84
2022/03/03 02:34:25;;;;;;;58.05;37.45;;;1.10;99.90;;;;;;5076568;28;20043;-84
2022/03/03 02:36:51;;;;;;;55.75;36.13;;;1.10;99.90;;;;;;5059021;28;20028;-84
2022/03/03 02:39:17;;;;;;;56.88;35.08;;;1.10;99.90;;;;;;5077193;28;20036;-84
2022/03/03 02:41:42;;;;;;;59.95;35.53;;;1.10;99.90;;;;;;5060376;28;20083;-86
2022/03/03 02:44:08;;;;;;;55.63;35.03;;;1.00;99.90;;;;;;5072046;28;20055;-84
2022/03/03 02:46:34;;;;;;;59.75;38.17;;;1.00;99.90;;;;;;5035377;28;20183;-83
2022/03/03 02:48:59;;;;;;;59.35;37.58;;;1.00;99.90;;;;;;5035125;28;20040;-84
2022/03/03 02:51:25;;;;;;;64.18;37.65;;;1.00;99.90;;;;;;5035448;28;20052;-84
2022/03/03 02:53:50;;;;;;;58.20;35.92;;;1.10;99.90;;;;;;5051750;28;20040;-84
2022/03/03 02:56:16;;;;;;;56.25;34.95;;;1.10;99.90;;;;;;5018954;28;20163;-83
2022/03/03 02:58:42;;;;;;;58.17;36.13;;;1.10;99.90;;;;;;5051870;28;20080;-83
2022/03/03 03:01:08;;;;;;;57.50;35.53;;;1.10;99.90;;;;;;5035046;28;20106;-84
2022/03/03 03:03:33;;;;;;;57.63;36.28;;;1.10;99.90;;;;;;5053121;28;20474;-84
2022/03/03 03:05:59;;;;;;;56.90;36.00;;;1.00;99.90;;;;;;5035087;28;20474;-84
2022/03/03 03:08:25;;;;;;;58.55;35.22;;;1.00;99.90;;;;;;5035221;28;20053;-84
2022/03/03 03:10:50;;;;;;;58.22;36.17;;;1.00;99.90;;;;;;5051254;28;20045;-83
2022/03/03 03:13:16;;;;;;;54.78;35.00;;;0.90;99.90;;;;;;5019108;28;20110;-83
2022/03/03 03:15:43;;;;;;;55.65;34.42;;;0.90;99.90;;;;;;5035153;28;20393;-83
2022/03/03 03:18:16;;;;;;;59.88;35.75;;;0.90;99.90;;;;;;5034583;28;20091;-83
2022/03/03 03:20:42;;;;;;;59.17;36.40;;;0.90;99.90;;;;;;5051545;28;20049;-83
2022/03/03 03:23:09;;;;;;;58.45;37.38;;;0.90;99.90;;;;;;5051256;28;20169;-83
2022/03/03 03:25:37;;;;;;;61.83;38.28;;;0.90;99.90;;;;;;5052746;28;20049;-83
2022/03/03 03:28:05;;;;;;;60.55;37.35;;;0.90;99.90;;;;;;5051234;28;20048;-84
2022/03/03 03:30:30;;;;;;;61.38;36.53;;;1.10;99.90;;;;;;5035466;28;20378;-83
2022/03/03 03:32:56;;;;;;;59.15;37.17;;;1.00;99.90;;;;;;5034559;28;20154;-83
2022/03/03 03:35:22;;;;;;;67.63;39.85;;;1.00;99.90;;;;;;5018320;28;20045;-83
2022/03/03 03:37:48;;;;;;;64.57;37.88;;;1.00;99.90;;;;;;5051475;28;20049;-83
2022/03/03 03:40:14;;;;;;;60.20;37.85;;;1.10;99.90;;;;;;5034682;28;20056;-83
2022/03/03 03:42:39;;;;;;;62.20;37.83;;;1.10;99.90;;;;;;5052670;28;20047;-83
2022/03/03 03:45:05;;;;;;;59.38;37.55;;;1.20;99.90;;;;;;5052140;28;20168;-83
2022/03/03 03:47:31;;;;;;;61.78;39.03;;;1.10;99.90;;;;;;5052509;28;20045;-84
2022/03/03 03:49:58;;;;;;;60.15;36.75;;;1.10;99.90;;;;;;5034603;28;20052;-84
2022/03/03 03:52:23;;;;;;;59.17;38.20;;;1.10;99.90;;;;;;5051299;28;20040;-83
2022/03/03 03:54:49;;;;;;;60.22;38.22;;;1.20;99.90;;;;;;5034895;28;20079;-83
2022/03/03 03:57:14;;;;;;;55.92;36.17;;;1.20;99.90;;;;;;5051386;28;20048;-83
2022/03/03 03:59:40;;;;;;;54.83;35.63;;;1.10;99.90;;;;;;5038531;28;20051;-83
2022/03/03 04:02:06;;;;;;;60.15;36.88;;;1.10;99.90;;;;;;5078187;28;20028;-83
2022/03/03 04:04:31;;;;;;;58.72;36.72;;;1.10;99.90;;;;;;5079771;28;20045;-83
2022/03/03 04:06:57;;;;;;;59.33;37.05;;;1.10;99.90;;;;;;5061416;28;20055;-85
2022/03/03 04:09:23;;;;;;;62.80;37.83;;;1.10;99.90;;;;;;5063654;28;20048;-84
2022/03/03 04:11:48;;;;;;;57.30;36.95;;;1.00;99.90;;;;;;5080253;28;20036;-84
2022/03/03 04:14:14;;;;;;;61.17;37.47;;;1.10;99.90;;;;;;5066055;28;20048;-84
2022/03/03 04:16:39;;;;;;;58.70;36.05;;;1.10;99.90;;;;;;5055952;28;20081;-84
2022/03/03 04:19:05;;;;;;;57.38;36.20;;;1.10;99.90;;;;;;5054343;28;20478;-84
2022/03/03 04:21:31;;;;;;;56.90;36.17;;;1.10;99.90;;;;;;5054643;28;20474;-84
2022/03/03 04:23:57;;;;;;;57.17;35.72;;;1.10;99.90;;;;;;5055621;28;20131;-85
2022/03/03 04:26:23;;;;;;;53.33;34.70;;;1.20;99.90;;;;;;5054337;28;20370;-84
2022/03/03 04:28:48;;;;;;;53.65;36.20;;;1.20;99.90;;;;;;5037926;28;20045;-84
2022/03/03 04:31:14;;;;;;;54.97;35.17;;;1.20;99.90;;;;;;5037652;28;20041;-84
2022/03/03 04:33:41;;;;;;;51.03;33.97;;;1.20;99.90;;;;;;5054096;28;20061;-84
2022/03/03 04:36:06;;;;;;;52.60;34.38;;;1.20;99.90;;;;;;5054094;28;20076;-84
2022/03/03 04:38:32;;;;;;;54.42;35.00;;;1.20;99.90;;;;;;5054312;28;20465;-84
2022/03/03 04:40:58;;;;;;;53.30;35.17;;;1.20;99.90;;;;;;5037790;28;20136;-84
2022/03/03 04:43:24;;;;;;;52.80;34.53;;;1.30;99.90;;;;;;5054264;28;20041;-84
2022/03/03 04:45:49;;;;;;;54.60;35.00;;;1.30;99.90;;;;;;5054083;28;20366;-84
2022/03/03 04:48:18;;;;;;;48.70;33.55;;;1.40;99.90;;;;;;5037355;28;20055;-84
2022/03/03 04:50:43;;;;;;;50.08;32.85;;;1.30;99.90;;;;;;5054373;28;20167;-84
2022/03/03 04:53:09;;;;;;;53.90;34.83;;;1.30;99.90;;;;;;5053734;28;20132;-84
2022/03/03 04:55:35;;;;;;;52.58;34.30;;;1.30;99.90;;;;;;5055174;28;20161;-84
2022/03/03 04:58:02;;;;;;;51.70;33.80;;;1.30;99.90;;;;;;5054095;28;20045;-84
2022/03/03 05:00:27;;;;;;;50.45;33.75;;;1.30;99.90;;;;;;5055048;28;20136;-84
2022/03/03 05:02:53;;;;;;;53.70;33.05;;;1.30;99.90;;;;;;5037464;28;20466;-84
2022/03/03 05:05:19;;;;;;;50.08;32.97;;;1.20;99.90;;;;;;5054839;28;20045;-84
2022/03/03 05:07:44;;;;;;;46.88;32.50;;;1.10;99.90;;;;;;5053786;28;20136;-82
2022/03/03 05:10:10;;;;;;;55.35;33.10;;;1.20;99.90;;;;;;5053302;28;20090;-81
2022/03/03 05:12:36;;;;;;;52.85;33.47;;;1.20;99.90;;;;;;5054637;28;20045;-81
2022/03/03 05:15:01;;;;;;;48.53;32.08;;;1.10;99.90;;;;;;5037344;28;20135;-81
2022/03/03 05:17:30;;;;;;;49.50;33.00;;;1.20;99.90;;;;;;5054239;28;20481;-87
2022/03/03 05:19:57;;;;;;;46.67;32.53;;;1.20;99.90;;;;;;5037485;28;20049;-87
2022/03/03 05:22:22;;;;;;;48.30;32.28;;;1.20;99.90;;;;;;5036917;28;20110;-88
2022/03/03 05:24:50;;;;;;;49.70;31.75;;;1.20;99.90;;;;;;5020785;28;20052;-87
2022/03/03 05:27:18;;;;;;;49.25;31.67;;;1.20;99.90;;;;;;5053533;28;20409;-89
2022/03/03 05:29:53;;;;;;;48.33;31.48;;;1.10;99.90;;;;;;5031416;28;20124;-89
2022/03/03 05:32:32;;;;;;;;;;;;;;;;;;;;;
2022/03/03 05:34:57;;;;;;;50.05;32.95;;;1.10;99.90;;;;;;5047617;28;20056;-84
2022/03/03 05:37:24;;;;;;;48.80;33.00;;;1.00;99.90;;;;;;5078288;28;20059;-85
2022/03/03 05:39:50;;;;;;;48.28;31.63;;;1.10;99.90;;;;;;5062461;28;20039;-86
2022/03/03 05:42:19;;;;;;;46.80;32.63;;;1.10;99.90;;;;;;5078326;28;20052;-85
2022/03/03 05:44:46;;;;;;;48.20;31.95;;;1.00;99.90;;;;;;5060118;28;20516;-88
2022/03/03 05:47:12;;;;;;;51.17;33.45;;;0.90;99.90;;;;;;5055364;28;20436;-85
2022/03/03 05:49:38;;;;;;;43.85;31.50;;;0.90;99.90;;;;;;5053147;28;20048;-88
2022/03/03 05:52:03;;;;;;;52.97;33.13;;;0.90;99.90;;;;;;5020085;28;20045;-88
2022/03/03 05:54:29;;;;;;;49.95;32.60;;;0.90;99.90;;;;;;5052575;28;20128;-87
2022/03/03 05:56:55;;;;;;;48.35;31.73;;;0.90;99.90;;;;;;5036330;28;20488;-88
2022/03/03 05:59:23;;;;;;;45.70;31.27;;;1.00;99.90;;;;;;5036000;28;20060;-84
2022/03/03 06:01:48;;;;;;;49.80;32.58;;;0.90;99.90;;;;;;5052642;28;20041;-82
2022/03/03 06:04:16;;;;;;;48.97;31.85;;;1.00;99.90;;;;;;5035789;28;20397;-81
2022/03/03 06:07:00;;;;;;;47.70;31.63;;;0.90;99.90;;;;;;5052360;28;20046;-80
2022/03/03 06:09:27;;;;;;;47.13;30.83;;;0.90;99.90;;;;;;5053326;28;20052;-81
2022/03/03 06:12:11;;;;;;;48.67;32.45;;;0.80;99.90;;;;;;5052611;28;20044;-81
2022/03/03 06:14:41;;;;;;;45.63;31.23;;;0.80;99.90;;;;;;5036295;28;20044;-81
2022/03/03 06:17:07;;;;;;;48.13;30.30;;;0.80;99.90;;;;;;5052509;28;20393;-82
2022/03/03 06:19:39;;;;;;;47.83;31.30;;;0.80;99.90;;;;;;5051528;28;20549;-81
2022/03/03 06:22:06;;;;;;;47.15;31.08;;;0.80;99.90;;;;;;5053279;28;20076;-81
2022/03/03 06:24:32;;;;;;;48.00;30.63;;;0.80;99.90;;;;;;5053269;28;20060;-82
2022/03/03 06:26:58;;;;;;;49.08;32.97;;;0.80;99.90;;;;;;5052324;28;20382;-81
2022/03/03 06:29:23;;;;;;;44.85;30.52;;;0.80;99.90;;;;;;5053115;28;20045;-81
2022/03/03 06:31:49;;;;;;;49.45;31.27;;;0.80;99.90;;;;;;5053283;28;20047;-81
2022/03/03 06:34:15;;;;;;;49.85;31.30;;;0.80;99.90;;;;;;5052671;28;20063;-82
2022/03/03 06:36:40;;;;;;;46.72;31.30;;;0.90;99.90;;;;;;5053023;28;20098;-81
2022/03/03 06:39:08;;;;;;;45.67;30.60;;;0.80;99.90;;;;;;5053310;28;20045;-82
2022/03/03 06:41:34;;;;;;;47.58;31.10;;;0.80;99.90;;;;;;5053139;28;20147;-83
2022/03/03 06:43:59;;;;;;;45.92;30.40;;;0.80;99.90;;;;;;5053338;28;20064;-82
2022/03/03 06:46:25;;;;;;;42.28;30.15;;;0.80;99.90;;;;;;5053021;28;20071;-82
2022/03/03 06:48:51;;;;;;;47.30;31.20;;;0.80;99.90;;;;;;5053134;28;20114;-82
2022/03/03 06:51:17;;;;;;;48.75;30.70;;;0.80;99.90;;;;;;5035396;28;20048;-82
2022/03/03 06:53:44;;;;;;;47.88;30.65;;;0.90;99.90;;;;;;5051559;28;20486;-82
2022/03/03 06:56:10;;;;;;;45.95;31.13;;;0.90;99.90;;;;;;5053137;28;20045;-82
2022/03/03 06:58:36;;;;;;;45.13;32.38;;;0.90;99.90;;;;;;5035212;28;20067;-82
2022/03/03 07:01:04;;;;;;;45.80;31.20;;;0.90;99.90;;;;;;5035444;28;20041;-81
2022/03/03 07:03:33;;;;;;;43.30;28.80;;;0.90;99.90;;;;;;5052656;28;20055;-81
2022/03/03 07:05:59;;;;;;;44.60;31.02;;;1.00;99.90;;;;;;5052875;28;20044;-81
2022/03/03 07:08:25;;;;;;;43.25;31.45;;;0.90;99.90;;;;;;5051399;28;20092;-82
2022/03/03 07:10:51;;;;;;;47.95;32.08;;;1.00;99.90;;;;;;5035033;28;20084;-82
2022/03/03 07:13:19;;;;;;;45.67;30.42;;;1.00;99.90;;;;;;5052685;28;20475;-81
2022/03/03 07:15:50;;;;;;;43.17;30.25;;;1.00;99.90;;;;;;5051815;28;20049;-81
2022/03/03 07:18:20;;;;;;;45.85;31.05;;;1.10;99.90;;;;;;5052765;28;20067;-80
2022/03/03 07:21:02;;;;;;;42.25;31.02;;;1.10;99.90;;;;;;5018900;28;20443;-80
2022/03/03 07:23:35;;;;;;;47.08;31.40;;;1.10;99.90;;;;;;5052461;28;20049;-79
2022/03/03 07:26:01;;;;;;;45.03;31.27;;;1.10;99.90;;;;;;5052637;28;20056;-81
2022/03/03 07:28:28;;;;;;;48.88;31.20;;;1.10;99.90;;;;;;5052243;28;20049;-80
2022/03/03 07:30:54;;;;;;;44.45;30.08;;;1.30;99.90;;;;;;5035124;28;20045;-81
2022/03/03 07:33:32;;;;;;;45.80;30.77;;;1.20;99.90;;;;;;5066738;28;20036;-80
2022/03/03 07:35:58;;;;;;;47.17;31.17;;;1.30;99.90;;;;;;5070062;28;20056;-80
2022/03/03 07:38:31;;;;;;;43.70;30.75;;;1.40;99.90;;;;;;5067214;28;20538;-80
2022/03/03 07:40:57;;;;;;;45.03;31.13;;;1.30;99.90;;;;;;5062614;28;20041;-79
2022/03/03 07:43:22;;;;;;;47.10;30.17;;;1.30;99.90;;;;;;5081290;28;20035;-81
2022/03/03 07:45:48;;;;;;;44.97;29.83;;;1.40;99.90;;;;;;5080077;28;20025;-81
2022/03/03 07:48:14;;;;;;;42.65;30.77;;;1.40;99.90;;;;;;5081226;28;20045;-81
2022/03/03 07:50:41;;;;;;;46.53;30.65;;;1.40;99.90;;;;;;5063894;28;20390;-80
2022/03/03 07:53:10;;;;;;;44.55;29.13;;;1.40;99.90;;;;;;5056325;28;20045;-85
2022/03/03 07:55:45;;;;;;;43.30;28.85;;;1.50;99.90;;;;;;5038877;28;20052;-81
2022/03/03 07:58:21;;;;;;;44.80;29.83;;;1.50;99.90;;;;;;5056054;28;20048;-80
2022/03/03 08:00:53;;;;;;;40.72;28.95;;;1.70;99.90;;;;;;5040332;28;20088;-80
2022/03/03 08:03:20;;;;;;;41.83;28.77;;;1.60;99.90;;;;;;5039808;28;20049;-80
2022/03/03 08:05:49;;;;;;;44.20;29.98;;;1.60;99.90;;;;;;5056036;28;20041;-80
2022/03/03 08:08:16;;;;;;;42.40;28.88;;;1.70;99.90;;;;;;5054836;28;20113;-81
2022/03/03 08:10:43;;;;;;;42.03;29.95;;;1.70;99.90;;;;;;5038072;28;20096;-80
2022/03/03 08:13:11;;;;;;;43.08;29.42;;;1.80;99.90;;;;;;5054172;28;20045;-81
2022/03/03 08:15:38;;;;;;;40.10;28.98;;;1.80;99.90;;;;;;5055506;28;20206;-81
2022/03/03 08:18:04;;;;;;;41.28;29.77;;;1.80;99.90;;;;;;5054413;28;20120;-81
2022/03/03 08:20:32;;;;;;;43.05;29.85;;;1.90;99.90;;;;;;5054394;28;20057;-81
2022/03/03 08:22:59;;;;;;;41.30;30.00;;;1.90;99.90;;;;;;5055619;28;20060;-80
2022/03/03 08:25:25;;;;;;;37.83;29.10;;;2.00;99.90;;;;;;5054470;28;20048;-81
2022/03/03 08:27:53;;;;;;;40.60;29.42;;;2.00;99.90;;;;;;5021262;28;20045;-81
2022/03/03 08:30:18;;;;;;;39.58;28.83;;;2.00;99.90;;;;;;5055728;28;20048;-81
2022/03/03 08:33:22;;;;;;;39.72;29.27;;;2.00;99.90;;;;;;5055124;28;20367;-81
2022/03/03 08:35:52;;;;;;;36.40;28.30;;;2.10;99.90;;;;;;5001446;28;20489;-81
2022/03/03 08:38:23;;;;;;;41.50;29.50;;;2.10;99.90;;;;;;5048291;28;20092;-81
2022/03/03 08:40:50;;;;;;;40.47;28.20;;;2.20;99.90;;;;;;5053985;28;20068;-81
2022/03/03 08:43:15;;;;;;;40.35;29.05;;;2.20;99.90;;;;;;5037562;28;20049;-81
2022/03/03 08:45:41;;;;;;;42.95;29.52;;;2.20;99.90;;;;;;5053911;28;20052;-81
2022/03/03 08:48:08;;;;;;;38.20;28.55;;;2.30;99.90;;;;;;5037703;28;20102;-81
2022/03/03 08:50:38;;;;;;;40.78;28.98;;;2.30;99.90;;;;;;5053762;28;20049;-81
2022/03/03 08:53:05;;;;;;;37.70;28.40;;;2.40;99.90;;;;;;5055308;28;20397;-80
2022/03/03 08:55:31;;;;;;;40.22;28.75;;;2.50;99.90;;;;;;5055158;28;20056;-80
2022/03/03 08:57:58;;;;;;;38.45;27.75;;;2.50;99.90;;;;;;5054640;28;20053;-80
2022/03/03 09:00:23;;;;;;;39.63;28.83;;;2.60;99.90;;;;;;5037518;28;20071;-80
2022/03/03 09:02:49;;;;;;;40.10;28.15;;;2.50;99.90;;;;;;5054760;28;20033;-83
2022/03/03 09:05:18;;;;;;;36.65;27.05;;;2.70;99.90;;;;;;5053842;28;20056;-85
2022/03/03 09:07:44;;;;;;;36.85;27.33;;;2.70;99.90;;;;;;5054640;28;20044;-81
2022/03/03 09:10:10;;;;;;;36.80;26.70;;;2.80;99.90;;;;;;5053635;28;20389;-81
2022/03/03 09:12:36;;;;;;;36.33;26.52;;;2.90;99.90;;;;;;5054558;28;20045;-84
2022/03/03 09:15:01;;;;;;;37.35;27.45;;;2.90;99.90;;;;;;5054909;28;20049;-82
2022/03/03 09:17:27;;;;;;;35.78;26.80;;;3.00;99.90;;;;;;5054940;28;20053;-83
2022/03/03 09:19:53;;;;;;;35.08;26.30;;;3.00;99.90;;;;;;5020529;28;20060;-80
2022/03/03 09:22:18;;;;;;;36.42;26.13;;;3.10;99.90;;;;;;5069566;28;20052;-81
2022/03/03 09:24:44;;;;;;;34.72;26.65;;;3.10;99.90;;;;;;5072726;28;20044;-81
2022/03/03 09:27:10;;;;;;;35.72;26.45;;;3.20;99.90;;;;;;5078472;28;20052;-82
2022/03/03 09:29:35;;;;;;;36.80;26.88;;;3.30;99.90;;;;;;5075930;28;20051;-85
2022/03/03 09:32:02;;;;;;;35.63;27.45;;;3.40;99.90;;;;;;5077897;28;20021;-85
2022/03/03 09:34:28;;;;;;;33.40;25.95;;;3.40;99.90;;;;;;5061861;28;20056;-84
2022/03/03 09:36:55;;;;;;;34.85;25.52;;;3.50;99.90;;;;;;5067643;28;20452;-85
2022/03/03 09:39:20;;;;;;;32.75;25.50;;;3.60;99.90;;;;;;5054442;28;20433;-83
2022/03/03 09:41:47;;;;;;;34.67;25.50;;;3.70;99.90;;;;;;5052856;28;20150;-84
2022/03/03 09:44:13;;;;;;;31.00;25.25;;;3.70;99.90;;;;;;5036666;28;20079;-84
2022/03/03 09:46:40;;;;;;;30.10;24.65;;;3.70;99.90;;;;;;5053091;28;20045;-84
2022/03/03 09:49:06;;;;;;;32.00;25.00;;;3.90;99.90;;;;;;5053011;28;20041;-84
2022/03/03 09:51:32;;;;;;;34.63;24.95;;;3.90;99.90;;;;;;5019878;28;20468;-84
2022/03/03 09:53:58;;;;;;;31.50;23.38;;;4.00;99.90;;;;;;5052362;28;20072;-84
2022/03/03 09:56:23;;;;;;;30.88;23.52;;;4.10;99.90;;;;;;5019324;28;20087;-84
2022/03/03 09:58:49;;;;;;;29.80;23.70;;;4.20;99.90;;;;;;5052443;28;20076;-85
2022/03/03 10:01:17;;;;;;;30.05;23.27;;;4.20;99.90;;;;;;5053926;28;20547;-86
2022/03/03 10:03:47;;;;;;;28.10;23.02;;;4.30;99.90;;;;;;5036376;28;20131;-86
2022/03/03 10:06:13;;;;;;;27.13;22.38;;;4.40;99.90;;;;;;5052987;28;20049;-84
2022/03/03 10:08:38;;;;;;;31.17;23.13;;;4.50;99.90;;;;;;5019972;28;20091;-84
2022/03/03 10:11:04;;;;;;;28.17;21.35;;;4.60;99.90;;;;;;5053366;28;20060;-83
2022/03/03 10:13:47;;;;;;;27.77;21.58;;;4.70;99.90;;;;;;5053776;28;20041;-82
2022/03/03 10:16:23;;;;;;;28.08;21.73;;;4.80;99.90;;;;;;5036149;28;20048;-81
2022/03/03 10:19:07;;;;;;;30.52;21.10;;;4.90;99.90;;;;;;5052020;28;20400;-83
2022/03/03 10:21:35;;;;;;;25.30;20.60;;;5.00;99.90;;;;;;5053331;28;20063;-83
2022/03/03 10:24:13;;;;;;;27.92;21.00;;;5.00;99.90;;;;;;5035945;28;20045;-84
2022/03/03 10:26:38;;;;;;;26.60;20.40;;;5.20;99.90;;;;;;5037108;28;20048;-83
2022/03/03 10:29:18;;;;;;;24.15;20.17;;;5.10;99.90;;;;;;5051813;28;20082;-82
2022/03/03 10:31:48;;;;;;;24.83;20.35;;;5.20;99.90;;;;;;5053304;28;20045;-83
2022/03/03 10:34:33;;;;;;;24.67;19.40;;;5.20;99.90;;;;;;5052148;28;20473;-83
2022/03/03 10:37:07;;;;;;;25.10;19.90;;;5.30;99.90;;;;;;5035135;28;20408;-84
2022/03/03 10:39:42;;;;;;;23.58;18.42;;;5.30;99.90;;;;;;5052193;28;20266;-84
2022/03/03 10:42:18;;;;;;;22.85;18.90;;;5.40;99.90;;;;;;5035357;28;20098;-84
2022/03/03 10:44:43;;;;;;;23.92;18.80;;;5.50;99.90;;;;;;5035912;28;20114;-84
2022/03/03 10:47:11;;;;;;;23.92;18.17;;;5.50;99.90;;;;;;5051655;28;20139;-85
2022/03/03 10:49:44;;;;;;;23.42;17.92;;;5.60;99.90;;;;;;5019265;28;20044;-83
2022/03/03 10:52:10;;;;;;;20.75;17.23;;;5.60;99.90;;;;;;5035141;28;20064;-84
2022/03/03 10:54:52;;;;;;;21.27;16.80;;;5.70;99.80;;;;;;5052087;28;20040;-83
2022/03/03 10:57:46;;;;;;;18.80;15.73;;;5.90;98.80;;;;;;5052050;28;20045;-83
2022/03/03 11:00:13;;;;;;;18.00;14.68;;;5.90;97.50;;;;;;5035185;28;20091;-82
2022/03/03 11:02:41;;;;;;;21.38;15.80;;;6.00;97.30;;;;;;5051974;28;20088;-82
2022/03/03 11:05:09;;;;;;;23.48;15.25;;;6.20;96.20;;;;;;5053106;28;20530;-82
2022/03/03 11:07:35;;;;;;;16.90;15.02;;;6.30;95.50;;;;;;5052451;28;20052;-84
2022/03/03 11:10:01;;;;;;;20.42;16.75;;;6.40;94.70;;;;;;5019284;28;20053;-86
2022/03/03 11:12:27;;;;;;;19.40;16.55;;;6.50;95.20;;;;;;5036968;28;20109;-83
2022/03/03 11:14:54;;;;;;;23.10;17.50;;;6.60;94.60;;;;;;5036572;28;20053;-84
2022/03/03 11:17:20;;;;;;;19.25;17.02;;;6.70;94.50;;;;;;5051842;28;20095;-82
2022/03/03 11:19:46;;;;;;;21.52;16.55;;;6.80;94.00;;;;;;5074398;28;20029;-83
2022/03/03 11:22:14;;;;;;;21.30;16.75;;;6.90;93.70;;;;;;5076435;28;20448;-83
2022/03/03 11:24:41;;;;;;;18.30;15.00;;;6.90;93.30;;;;;;5060274;28;20088;-83
2022/03/03 11:27:08;;;;;;;17.48;15.30;;;7.00;92.90;;;;;;5043773;28;20033;-85
2022/03/03 11:29:37;;;;;;;18.33;15.50;;;7.10;93.00;;;;;;5072359;28;20041;-83
2022/03/03 11:32:08;;;;;;;16.73;14.48;;;7.20;92.50;;;;;;5055988;28;20049;-82
2022/03/03 11:34:36;;;;;;;20.02;16.15;;;7.30;91.90;;;;;;5038285;28;20049;-82
2022/03/03 11:37:03;;;;;;;19.73;16.80;;;7.30;92.60;;;;;;5054746;28;20053;-83
2022/03/03 11:39:39;;;;;;;18.98;16.23;;;7.40;92.60;;;;;;5036509;28;20056;-83
2022/03/03 11:42:26;;;;;;;19.73;16.00;;;7.50;93.00;;;;;;5036544;28;20431;-84
2022/03/03 11:44:57;;;;;;;18.05;15.55;;;7.60;92.60;;;;;;5035856;28;20164;-84
2022/03/03 11:47:25;;;;;;;19.90;16.15;;;7.60;92.10;;;;;;5035998;28;20044;-83
2022/03/03 11:50:17;;;;;;;22.23;16.73;;;7.70;92.60;;;;;;5053073;28;20056;-83
2022/03/03 11:52:44;;;;;;;17.83;15.43;;;7.80;92.30;;;;;;5049444;28;20053;-79
2022/03/03 11:55:36;;;;;;;18.05;14.07;;;7.90;90.50;;;;;;5051093;28;20397;-81
2022/03/03 11:58:11;;;;;;;17.60;14.55;;;8.10;89.30;;;;;;5052447;28;20056;-82
2022/03/03 12:01:00;;;;;;;19.02;15.73;;;8.10;89.90;;;;;;5052642;28;20063;-82
2022/03/03 12:03:26;;;;;;;20.92;15.18;;;8.20;87.20;;;;;;5051394;28;20056;-81
2022/03/03 12:06:05;;;;;;;19.85;15.73;;;8.20;89.10;;;;;;5018663;28;20499;-82
2022/03/03 12:08:36;;;;;;;17.90;16.00;;;8.30;83.90;;;;;;5052401;28;20393;-82
2022/03/03 12:11:09;;;;;;;18.85;15.95;;;8.30;87.80;;;;;;5050597;28;20053;-82
2022/03/03 12:13:38;;;;;;;21.50;17.45;;;8.40;88.10;;;;;;5051204;28;20452;-82
2022/03/03 12:16:24;;;;;;;18.92;16.88;;;8.40;89.40;;;;;;5052114;28;20168;-82
2022/03/03 12:19:04;;;;;;;20.52;15.88;;;8.40;84.70;;;;;;5035516;28;20056;-81
2022/03/03 12:21:44;;;;;;;20.58;16.60;;;8.50;86.20;;;;;;5055746;28;20051;-82
2022/03/03 12:24:22;;;;;;;19.65;17.23;;;8.50;86.90;;;;;;5054803;28;20045;-80
2022/03/03 12:26:59;;;;;;;19.55;16.98;;;8.60;85.90;;;;;;5054954;28;20048;-82
2022/03/03 12:29:29;;;;;;;19.45;16.73;;;8.60;85.80;;;;;;5038192;28;20088;-81
2022/03/03 12:31:55;;;;;;;20.70;17.80;;;8.70;86.10;;;;;;5056034;28;20363;-82
2022/03/03 12:34:20;;;;;;;22.25;18.25;;;8.60;87.30;;;;;;5054848;28;20045;-80
2022/03/03 12:36:46;;;;;;;21.42;18.02;;;8.60;86.00;;;;;;5054566;28;20136;-82
2022/03/03 12:39:16;;;;;;;21.90;18.17;;;8.70;86.80;;;;;;5037951;28;20047;-82
2022/03/03 12:41:43;;;;;;;20.52;17.45;;;8.70;85.30;;;;;;5055972;28;20084;-83